sensor_id;sensor_type;location;lat;lon;timestamp;P1;durP1;ratioP1;P2;durP2;ratioP2
9166;SDS011;4618;48.818;9.088;2023-02-14T00:01:30;37.53;;;22.60;;
9166;SDS011;4618;48.818;9.088;2023-02-14T00:03:56;40.33;;;23.17;;
9166;SDS011;4618;48.818;9.088;2023-02-14T00:06:24;40.17;;;23.00;;
9166;SDS011;4618;48.818;9.088;2023-02-14T00:08:50;37.87;;;22.33;;
9166;SDS011;4618;48.818;9.088;2023-02-14T00:11:18;42.70;;;23.97;;
9166;SDS011;4618;48.818;9.088;2023-02-14T00:13:44;36.43;;;22.03;;
9166;SDS011;4618;48.818;9.088;2023-02-14T00:16:28;40.80;;;21.97;;
9166;SDS011;4618;48.818;9.088;2023-02-14T00:18:54;41.37;;;22.43;;
9166;SDS011;4618;48.818;9.088;2023-02-14T00:21:30;33.47;;;21.13;;
9166;SDS011;4618;48.818;9.088;2023-02-14T00:23:59;38.03;;;22.07;;
9166;SDS011;4618;48.818;9.088;2023-02-14T00:26:25;38.10;;;22.57;;
9166;SDS011;4618;48.818;9.088;2023-02-14T00:28:51;40.13;;;23.00;;
9166;SDS011;4618;48.818;9.088;2023-02-14T00:31:17;40.83;;;23.07;;
9166;SDS011;4618;48.818;9.088;2023-02-14T00:33:42;37.77;;;22.47;;
9166;SDS011;4618;48.818;9.088;2023-02-14T00:36:08;39.17;;;21.03;;
9166;SDS011;4618;48.818;9.088;2023-02-14T00:38:35;38.33;;;22.67;;
9166;SDS011;4618;48.818;9.088;2023-02-14T00:41:00;41.20;;;22.07;;
9166;SDS011;4618;48.818;9.088;2023-02-14T00:43:26;42.23;;;22.77;;
9166;SDS011;4618;48.818;9.088;2023-02-14T00:45:52;43.50;;;23.27;;
9166;SDS011;4618;48.818;9.088;2023-02-14T00:48:18;43.80;;;24.20;;
9166;SDS011;4618;48.818;9.088;2023-02-14T00:50:43;43.30;;;23.53;;
9166;SDS011;4618;48.818;9.088;2023-02-14T00:53:12;47.03;;;24.17;;
9166;SDS011;4618;48.818;9.088;2023-02-14T00:55:38;46.80;;;25.43;;
9166;SDS011;4618;48.818;9.088;2023-02-14T00:58:04;45.07;;;23.80;;
9166;SDS011;4618;48.818;9.088;2023-02-14T01:00:29;41.50;;;22.77;;
9166;SDS011;4618;48.818;9.088;2023-02-14T01:02:55;44.90;;;23.90;;
9166;SDS011;4618;48.818;9.088;2023-02-14T01:05:21;42.13;;;22.97;;
9166;SDS011;4618;48.818;9.088;2023-02-14T01:07:46;42.80;;;23.03;;
9166;SDS011;4618;48.818;9.088;2023-02-14T01:10:12;44.23;;;24.23;;
9166;SDS011;4618;48.818;9.088;2023-02-14T01:12:38;45.47;;;24.43;;
9166;SDS011;4618;48.818;9.088;2023-02-14T01:15:03;43.23;;;24.40;;
9166;SDS011;4618;48.818;9.088;2023-02-14T01:17:29;48.10;;;25.23;;
9166;SDS011;4618;48.818;9.088;2023-02-14T01:19:55;47.50;;;25.20;;
9166;SDS011;4618;48.818;9.088;2023-02-14T01:22:20;48.90;;;24.70;;
9166;SDS011;4618;48.818;9.088;2023-02-14T01:24:46;46.07;;;25.53;;
9166;SDS011;4618;48.818;9.088;2023-02-14T01:27:12;46.40;;;25.37;;
9166;SDS011;4618;48.818;9.088;2023-02-14T01:29:37;44.43;;;24.93;;
9166;SDS011;4618;48.818;9.088;2023-02-14T01:32:03;48.83;;;25.37;;
9166;SDS011;4618;48.818;9.088;2023-02-14T01:34:28;47.87;;;25.83;;
9166;SDS011;4618;48.818;9.088;2023-02-14T01:36:54;47.17;;;26.10;;
9166;SDS011;4618;48.818;9.088;2023-02-14T01:39:20;44.30;;;24.83;;
9166;SDS011;4618;48.818;9.088;2023-02-14T01:41:46;43.43;;;24.73;;
9166;SDS011;4618;48.818;9.088;2023-02-14T01:46:38;43.67;;;24.17;;
9166;SDS011;4618;48.818;9.088;2023-02-14T01:49:05;46.50;;;24.53;;
9166;SDS011;4618;48.818;9.088;2023-02-14T01:51:41;46.23;;;24.33;;
9166;SDS011;4618;48.818;9.088;2023-02-14T01:54:13;47.50;;;24.90;;
9166;SDS011;4618;48.818;9.088;2023-02-14T01:56:41;47.80;;;23.90;;
9166;SDS011;4618;48.818;9.088;2023-02-14T01:59:09;50.13;;;24.80;;
9166;SDS011;4618;48.818;9.088;2023-02-14T02:01:39;46.20;;;23.67;;
9166;SDS011;4618;48.818;9.088;2023-02-14T02:04:09;48.13;;;24.67;;
9166;SDS011;4618;48.818;9.088;2023-02-14T02:06:40;49.73;;;25.73;;
9166;SDS011;4618;48.818;9.088;2023-02-14T02:09:45;52.63;;;25.33;;
9166;SDS011;4618;48.818;9.088;2023-02-14T02:12:16;52.13;;;26.60;;
9166;SDS011;4618;48.818;9.088;2023-02-14T02:14:41;56.03;;;25.83;;
9166;SDS011;4618;48.818;9.088;2023-02-14T02:25:13;43.10;;;23.73;;
9166;SDS011;4618;48.818;9.088;2023-02-14T02:39:00;36.53;;;21.57;;
9166;SDS011;4618;48.818;9.088;2023-02-14T02:52:11;38.50;;;22.60;;
9166;SDS011;4618;48.818;9.088;2023-02-14T02:55:16;35.60;;;20.77;;
9166;SDS011;4618;48.818;9.088;2023-02-14T02:57:48;35.27;;;20.47;;
9166;SDS011;4618;48.818;9.088;2023-02-14T03:00:15;29.10;;;19.07;;
9166;SDS011;4618;48.818;9.088;2023-02-14T03:02:44;35.60;;;19.73;;
9166;SDS011;4618;48.818;9.088;2023-02-14T03:05:31;30.03;;;19.20;;
9166;SDS011;4618;48.818;9.088;2023-02-14T03:07:59;31.53;;;19.47;;
9166;SDS011;4618;48.818;9.088;2023-02-14T03:10:26;31.73;;;20.23;;
9166;SDS011;4618;48.818;9.088;2023-02-14T03:15:46;30.50;;;17.90;;
9166;SDS011;4618;48.818;9.088;2023-02-14T03:18:43;27.40;;;18.50;;
9166;SDS011;4618;48.818;9.088;2023-02-14T03:24:12;30.83;;;18.80;;
9166;SDS011;4618;48.818;9.088;2023-02-14T03:26:48;29.07;;;18.80;;
9166;SDS011;4618;48.818;9.088;2023-02-14T03:29:28;35.10;;;20.93;;
9166;SDS011;4618;48.818;9.088;2023-02-14T03:32:18;29.87;;;18.77;;
9166;SDS011;4618;48.818;9.088;2023-02-14T03:37:28;31.87;;;18.87;;
9166;SDS011;4618;48.818;9.088;2023-02-14T03:40:08;30.40;;;19.53;;
9166;SDS011;4618;48.818;9.088;2023-02-14T03:42:40;27.33;;;17.00;;
9166;SDS011;4618;48.818;9.088;2023-02-14T03:45:10;28.23;;;19.00;;
9166;SDS011;4618;48.818;9.088;2023-02-14T03:47:39;31.53;;;18.47;;
9166;SDS011;4618;48.818;9.088;2023-02-14T03:50:14;35.50;;;19.60;;
9166;SDS011;4618;48.818;9.088;2023-02-14T03:52:43;33.83;;;19.83;;
9166;SDS011;4618;48.818;9.088;2023-02-14T03:55:10;33.40;;;19.10;;
9166;SDS011;4618;48.818;9.088;2023-02-14T03:57:51;31.40;;;19.30;;
9166;SDS011;4618;48.818;9.088;2023-02-14T04:00:38;33.03;;;19.13;;
9166;SDS011;4618;48.818;9.088;2023-02-14T04:03:08;30.03;;;19.17;;
9166;SDS011;4618;48.818;9.088;2023-02-14T04:05:38;34.43;;;20.83;;
9166;SDS011;4618;48.818;9.088;2023-02-14T04:08:07;33.47;;;19.90;;
9166;SDS011;4618;48.818;9.088;2023-02-14T04:10:34;38.37;;;22.07;;
9166;SDS011;4618;48.818;9.088;2023-02-14T04:13:00;33.23;;;20.83;;
9166;SDS011;4618;48.818;9.088;2023-02-14T04:15:25;32.13;;;19.77;;
9166;SDS011;4618;48.818;9.088;2023-02-14T04:17:51;35.03;;;20.23;;
9166;SDS011;4618;48.818;9.088;2023-02-14T04:20:35;36.27;;;20.87;;
9166;SDS011;4618;48.818;9.088;2023-02-14T04:23:01;33.77;;;20.10;;
9166;SDS011;4618;48.818;9.088;2023-02-14T04:25:27;35.60;;;20.80;;
9166;SDS011;4618;48.818;9.088;2023-02-14T04:27:53;34.93;;;19.80;;
9166;SDS011;4618;48.818;9.088;2023-02-14T04:30:18;36.43;;;20.97;;
9166;SDS011;4618;48.818;9.088;2023-02-14T04:32:47;35.10;;;20.90;;
9166;SDS011;4618;48.818;9.088;2023-02-14T04:35:13;30.33;;;18.97;;
9166;SDS011;4618;48.818;9.088;2023-02-14T04:37:39;32.37;;;19.73;;
9166;SDS011;4618;48.818;9.088;2023-02-14T04:40:05;30.93;;;19.30;;
9166;SDS011;4618;48.818;9.088;2023-02-14T04:42:31;33.90;;;18.90;;
9166;SDS011;4618;48.818;9.088;2023-02-14T04:44:57;31.07;;;19.50;;
9166;SDS011;4618;48.818;9.088;2023-02-14T04:47:22;30.63;;;18.93;;
9166;SDS011;4618;48.818;9.088;2023-02-14T04:49:48;30.50;;;19.23;;
9166;SDS011;4618;48.818;9.088;2023-02-14T04:52:14;31.13;;;20.27;;
9166;SDS011;4618;48.818;9.088;2023-02-14T04:54:39;33.70;;;19.73;;
9166;SDS011;4618;48.818;9.088;2023-02-14T04:57:05;34.50;;;21.60;;
9166;SDS011;4618;48.818;9.088;2023-02-14T04:59:30;30.93;;;19.87;;
9166;SDS011;4618;48.818;9.088;2023-02-14T05:01:56;32.67;;;18.87;;
9166;SDS011;4618;48.818;9.088;2023-02-14T05:04:21;32.37;;;19.83;;
9166;SDS011;4618;48.818;9.088;2023-02-14T05:06:47;31.07;;;19.70;;
9166;SDS011;4618;48.818;9.088;2023-02-14T05:09:13;31.87;;;19.63;;
9166;SDS011;4618;48.818;9.088;2023-02-14T05:11:38;35.13;;;20.07;;
9166;SDS011;4618;48.818;9.088;2023-02-14T05:14:04;34.20;;;19.63;;
9166;SDS011;4618;48.818;9.088;2023-02-14T05:16:29;33.00;;;19.10;;
9166;SDS011;4618;48.818;9.088;2023-02-14T05:18:55;39.37;;;21.43;;
9166;SDS011;4618;48.818;9.088;2023-02-14T05:21:21;35.20;;;21.83;;
9166;SDS011;4618;48.818;9.088;2023-02-14T05:23:46;36.70;;;22.07;;
9166;SDS011;4618;48.818;9.088;2023-02-14T05:26:12;37.47;;;21.90;;
9166;SDS011;4618;48.818;9.088;2023-02-14T05:28:37;38.33;;;22.70;;
9166;SDS011;4618;48.818;9.088;2023-02-14T05:31:05;40.30;;;22.70;;
9166;SDS011;4618;48.818;9.088;2023-02-14T05:33:31;42.93;;;23.27;;
9166;SDS011;4618;48.818;9.088;2023-02-14T05:35:59;37.53;;;22.53;;
9166;SDS011;4618;48.818;9.088;2023-02-14T05:38:27;42.07;;;22.80;;
9166;SDS011;4618;48.818;9.088;2023-02-14T05:40:53;37.37;;;21.63;;
9166;SDS011;4618;48.818;9.088;2023-02-14T05:43:19;38.70;;;22.00;;
9166;SDS011;4618;48.818;9.088;2023-02-14T05:45:45;39.90;;;21.90;;
9166;SDS011;4618;48.818;9.088;2023-02-14T05:48:11;38.60;;;21.87;;
9166;SDS011;4618;48.818;9.088;2023-02-14T05:50:37;36.17;;;20.77;;
9166;SDS011;4618;48.818;9.088;2023-02-14T05:53:03;39.10;;;20.97;;
9166;SDS011;4618;48.818;9.088;2023-02-14T05:55:30;32.33;;;19.57;;
9166;SDS011;4618;48.818;9.088;2023-02-14T05:57:55;32.27;;;20.23;;
9166;SDS011;4618;48.818;9.088;2023-02-14T06:00:21;34.20;;;20.13;;
9166;SDS011;4618;48.818;9.088;2023-02-14T06:02:48;31.93;;;19.77;;
9166;SDS011;4618;48.818;9.088;2023-02-14T06:05:14;34.23;;;19.43;;
9166;SDS011;4618;48.818;9.088;2023-02-14T06:07:41;30.13;;;19.30;;
9166;SDS011;4618;48.818;9.088;2023-02-14T06:10:09;31.03;;;19.10;;
9166;SDS011;4618;48.818;9.088;2023-02-14T06:12:36;33.67;;;20.23;;
9166;SDS011;4618;48.818;9.088;2023-02-14T06:15:02;37.80;;;20.77;;
9166;SDS011;4618;48.818;9.088;2023-02-14T06:17:28;38.80;;;22.13;;
9166;SDS011;4618;48.818;9.088;2023-02-14T06:19:53;35.90;;;21.47;;
9166;SDS011;4618;48.818;9.088;2023-02-14T06:22:19;40.03;;;23.23;;
9166;SDS011;4618;48.818;9.088;2023-02-14T06:24:45;42.33;;;24.00;;
9166;SDS011;4618;48.818;9.088;2023-02-14T06:27:11;40.67;;;24.27;;
9166;SDS011;4618;48.818;9.088;2023-02-14T06:29:36;42.30;;;23.60;;
9166;SDS011;4618;48.818;9.088;2023-02-14T06:32:02;38.20;;;22.80;;
9166;SDS011;4618;48.818;9.088;2023-02-14T06:34:30;44.87;;;25.70;;
9166;SDS011;4618;48.818;9.088;2023-02-14T06:36:57;45.30;;;25.50;;
9166;SDS011;4618;48.818;9.088;2023-02-14T06:39:23;40.53;;;24.03;;
9166;SDS011;4618;48.818;9.088;2023-02-14T06:41:49;40.10;;;23.77;;
9166;SDS011;4618;48.818;9.088;2023-02-14T06:44:14;38.80;;;22.87;;
9166;SDS011;4618;48.818;9.088;2023-02-14T06:46:40;35.40;;;20.93;;
9166;SDS011;4618;48.818;9.088;2023-02-14T06:49:05;32.77;;;20.70;;
9166;SDS011;4618;48.818;9.088;2023-02-14T06:51:31;30.93;;;20.13;;
9166;SDS011;4618;48.818;9.088;2023-02-14T06:53:56;34.30;;;21.63;;
9166;SDS011;4618;48.818;9.088;2023-02-14T06:56:22;36.43;;;22.00;;
9166;SDS011;4618;48.818;9.088;2023-02-14T06:58:47;42.87;;;23.10;;
9166;SDS011;4618;48.818;9.088;2023-02-14T07:01:13;34.73;;;20.93;;
9166;SDS011;4618;48.818;9.088;2023-02-14T07:03:39;43.40;;;24.20;;
9166;SDS011;4618;48.818;9.088;2023-02-14T07:06:04;38.57;;;22.57;;
9166;SDS011;4618;48.818;9.088;2023-02-14T07:08:30;39.73;;;24.00;;
9166;SDS011;4618;48.818;9.088;2023-02-14T07:10:56;35.63;;;21.43;;
9166;SDS011;4618;48.818;9.088;2023-02-14T07:13:22;40.80;;;22.80;;
9166;SDS011;4618;48.818;9.088;2023-02-14T07:15:47;43.47;;;23.57;;
9166;SDS011;4618;48.818;9.088;2023-02-14T07:18:13;40.57;;;23.00;;
9166;SDS011;4618;48.818;9.088;2023-02-14T07:20:39;40.10;;;22.33;;
9166;SDS011;4618;48.818;9.088;2023-02-14T07:23:05;37.97;;;22.73;;
9166;SDS011;4618;48.818;9.088;2023-02-14T07:25:30;37.50;;;21.43;;
9166;SDS011;4618;48.818;9.088;2023-02-14T07:27:56;41.67;;;23.83;;
9166;SDS011;4618;48.818;9.088;2023-02-14T07:30:22;41.70;;;24.60;;
9166;SDS011;4618;48.818;9.088;2023-02-14T07:32:47;43.67;;;24.23;;
9166;SDS011;4618;48.818;9.088;2023-02-14T07:35:13;45.83;;;24.57;;
9166;SDS011;4618;48.818;9.088;2023-02-14T07:37:39;35.87;;;22.30;;
9166;SDS011;4618;48.818;9.088;2023-02-14T07:40:05;37.07;;;22.70;;
9166;SDS011;4618;48.818;9.088;2023-02-14T07:42:31;38.90;;;22.77;;
9166;SDS011;4618;48.818;9.088;2023-02-14T07:44:56;38.90;;;23.50;;
9166;SDS011;4618;48.818;9.088;2023-02-14T07:47:22;37.03;;;22.37;;
9166;SDS011;4618;48.818;9.088;2023-02-14T07:49:49;35.43;;;22.17;;
9166;SDS011;4618;48.818;9.088;2023-02-14T07:52:14;41.53;;;23.87;;
9166;SDS011;4618;48.818;9.088;2023-02-14T07:54:40;41.43;;;24.03;;
9166;SDS011;4618;48.818;9.088;2023-02-14T07:57:06;45.67;;;26.90;;
9166;SDS011;4618;48.818;9.088;2023-02-14T07:59:31;48.77;;;27.50;;
9166;SDS011;4618;48.818;9.088;2023-02-14T08:01:57;54.33;;;29.03;;
9166;SDS011;4618;48.818;9.088;2023-02-14T08:04:23;55.33;;;29.77;;
9166;SDS011;4618;48.818;9.088;2023-02-14T08:06:51;61.50;;;30.13;;
9166;SDS011;4618;48.818;9.088;2023-02-14T08:09:18;59.07;;;30.73;;
9166;SDS011;4618;48.818;9.088;2023-02-14T08:11:53;65.53;;;32.67;;
9166;SDS011;4618;48.818;9.088;2023-02-14T08:14:53;65.20;;;32.33;;
9166;SDS011;4618;48.818;9.088;2023-02-14T08:17:18;73.27;;;33.33;;
9166;SDS011;4618;48.818;9.088;2023-02-14T08:19:44;71.40;;;34.17;;
9166;SDS011;4618;48.818;9.088;2023-02-14T08:22:10;70.10;;;34.53;;
9166;SDS011;4618;48.818;9.088;2023-02-14T08:24:35;78.20;;;35.47;;
9166;SDS011;4618;48.818;9.088;2023-02-14T08:27:01;75.53;;;34.77;;
9166;SDS011;4618;48.818;9.088;2023-02-14T08:29:27;72.07;;;34.20;;
9166;SDS011;4618;48.818;9.088;2023-02-14T08:31:53;72.03;;;34.13;;
9166;SDS011;4618;48.818;9.088;2023-02-14T08:34:18;72.37;;;36.00;;
9166;SDS011;4618;48.818;9.088;2023-02-14T08:36:44;63.37;;;33.77;;
9166;SDS011;4618;48.818;9.088;2023-02-14T08:39:09;72.13;;;36.37;;
9166;SDS011;4618;48.818;9.088;2023-02-14T08:41:35;70.87;;;34.97;;
9166;SDS011;4618;48.818;9.088;2023-02-14T08:44:01;72.73;;;35.40;;
9166;SDS011;4618;48.818;9.088;2023-02-14T08:46:27;71.17;;;36.37;;
9166;SDS011;4618;48.818;9.088;2023-02-14T08:48:53;68.30;;;35.37;;
9166;SDS011;4618;48.818;9.088;2023-02-14T08:51:19;63.73;;;34.60;;
9166;SDS011;4618;48.818;9.088;2023-02-14T08:53:48;65.53;;;34.80;;
9166;SDS011;4618;48.818;9.088;2023-02-14T08:56:14;61.27;;;34.90;;
9166;SDS011;4618;48.818;9.088;2023-02-14T08:58:40;67.07;;;36.47;;
9166;SDS011;4618;48.818;9.088;2023-02-14T09:01:07;63.77;;;34.43;;
9166;SDS011;4618;48.818;9.088;2023-02-14T09:03:37;63.90;;;34.43;;
9166;SDS011;4618;48.818;9.088;2023-02-14T09:06:03;60.27;;;35.53;;
9166;SDS011;4618;48.818;9.088;2023-02-14T09:08:30;59.23;;;34.27;;
9166;SDS011;4618;48.818;9.088;2023-02-14T09:10:57;46.50;;;30.53;;
9166;SDS011;4618;48.818;9.088;2023-02-14T09:13:23;51.83;;;32.80;;
9166;SDS011;4618;48.818;9.088;2023-02-14T09:15:49;42.47;;;28.23;;
9166;SDS011;4618;48.818;9.088;2023-02-14T09:18:15;36.63;;;25.00;;
9166;SDS011;4618;48.818;9.088;2023-02-14T09:20:41;31.73;;;23.87;;
9166;SDS011;4618;48.818;9.088;2023-02-14T09:23:08;28.93;;;23.03;;
9166;SDS011;4618;48.818;9.088;2023-02-14T09:25:34;27.90;;;22.80;;
9166;SDS011;4618;48.818;9.088;2023-02-14T09:28:00;30.63;;;21.40;;
9166;SDS011;4618;48.818;9.088;2023-02-14T09:30:25;26.10;;;21.10;;
9166;SDS011;4618;48.818;9.088;2023-02-14T09:32:51;23.80;;;20.13;;
9166;SDS011;4618;48.818;9.088;2023-02-14T09:35:17;23.97;;;20.80;;
9166;SDS011;4618;48.818;9.088;2023-02-14T09:38:01;27.07;;;20.23;;
9166;SDS011;4618;48.818;9.088;2023-02-14T09:40:27;23.50;;;20.27;;
9166;SDS011;4618;48.818;9.088;2023-02-14T09:43:15;22.93;;;19.93;;
9166;SDS011;4618;48.818;9.088;2023-02-14T09:45:54;21.63;;;19.30;;
9166;SDS011;4618;48.818;9.088;2023-02-14T09:48:26;23.57;;;19.17;;
9166;SDS011;4618;48.818;9.088;2023-02-14T09:51:01;21.87;;;18.33;;
9166;SDS011;4618;48.818;9.088;2023-02-14T09:53:34;20.20;;;18.17;;
9166;SDS011;4618;48.818;9.088;2023-02-14T09:56:08;21.70;;;19.40;;
9166;SDS011;4618;48.818;9.088;2023-02-14T10:01:17;21.40;;;18.17;;
9166;SDS011;4618;48.818;9.088;2023-02-14T10:12:15;19.67;;;17.67;;
9166;SDS011;4618;48.818;9.088;2023-02-14T10:14:50;21.33;;;17.87;;
9166;SDS011;4618;48.818;9.088;2023-02-14T10:17:33;19.98;;;18.05;;
9166;SDS011;4618;48.818;9.088;2023-02-14T10:20:02;22.35;;;18.65;;
9166;SDS011;4618;48.818;9.088;2023-02-14T10:22:39;20.55;;;18.45;;
9166;SDS011;4618;48.818;9.088;2023-02-14T10:25:16;18.98;;;17.08;;
9166;SDS011;4618;48.818;9.088;2023-02-14T10:27:47;19.70;;;17.70;;
9166;SDS011;4618;48.818;9.088;2023-02-14T10:30:20;23.10;;;18.02;;
9166;SDS011;4618;48.818;9.088;2023-02-14T10:46:35;19.02;;;17.23;;
9166;SDS011;4618;48.818;9.088;2023-02-14T10:49:30;19.50;;;17.38;;
9166;SDS011;4618;48.818;9.088;2023-02-14T10:52:24;20.52;;;17.63;;
9166;SDS011;4618;48.818;9.088;2023-02-14T10:55:00;19.23;;;17.25;;
9166;SDS011;4618;48.818;9.088;2023-02-14T10:57:33;19.77;;;16.95;;
9166;SDS011;4618;48.818;9.088;2023-02-14T11:00:04;19.20;;;17.25;;
9166;SDS011;4618;48.818;9.088;2023-02-14T11:02:37;19.83;;;17.73;;
9166;SDS011;4618;48.818;9.088;2023-02-14T11:05:05;18.40;;;16.25;;
9166;SDS011;4618;48.818;9.088;2023-02-14T11:07:32;19.63;;;17.63;;
9166;SDS011;4618;48.818;9.088;2023-02-14T11:09:58;18.00;;;16.27;;
9166;SDS011;4618;48.818;9.088;2023-02-14T11:12:36;23.00;;;17.10;;
9166;SDS011;4618;48.818;9.088;2023-02-14T11:15:08;18.67;;;16.42;;
9166;SDS011;4618;48.818;9.088;2023-02-14T11:17:43;18.48;;;16.63;;
9166;SDS011;4618;48.818;9.088;2023-02-14T11:22:46;18.15;;;16.33;;
9166;SDS011;4618;48.818;9.088;2023-02-14T11:25:20;17.00;;;15.20;;
9166;SDS011;4618;48.818;9.088;2023-02-14T11:28:00;19.17;;;16.42;;
9166;SDS011;4618;48.818;9.088;2023-02-14T11:33:01;17.88;;;16.17;;
9166;SDS011;4618;48.818;9.088;2023-02-14T11:35:28;18.67;;;15.75;;
9166;SDS011;4618;48.818;9.088;2023-02-14T11:38:02;18.05;;;16.25;;
9166;SDS011;4618;48.818;9.088;2023-02-14T11:43:01;17.48;;;15.77;;
9166;SDS011;4618;48.818;9.088;2023-02-14T11:45:44;17.85;;;15.68;;
9166;SDS011;4618;48.818;9.088;2023-02-14T11:50:59;17.33;;;15.57;;
9166;SDS011;4618;48.818;9.088;2023-02-14T11:53:26;16.65;;;14.85;;
9166;SDS011;4618;48.818;9.088;2023-02-14T11:55:58;16.73;;;15.10;;
9166;SDS011;4618;48.818;9.088;2023-02-14T11:58:38;16.35;;;14.82;;
9166;SDS011;4618;48.818;9.088;2023-02-14T12:01:14;16.60;;;15.00;;
9166;SDS011;4618;48.818;9.088;2023-02-14T12:03:49;16.85;;;15.07;;
9166;SDS011;4618;48.818;9.088;2023-02-14T12:06:23;16.40;;;14.73;;
9166;SDS011;4618;48.818;9.088;2023-02-14T12:08:51;16.38;;;14.80;;
9166;SDS011;4618;48.818;9.088;2023-02-14T12:11:34;20.80;;;15.35;;
9166;SDS011;4618;48.818;9.088;2023-02-14T12:13:59;16.58;;;14.98;;
9166;SDS011;4618;48.818;9.088;2023-02-14T12:16:27;16.48;;;14.77;;
9166;SDS011;4618;48.818;9.088;2023-02-14T12:19:04;16.33;;;14.80;;
9166;SDS011;4618;48.818;9.088;2023-02-14T12:27:25;17.05;;;15.48;;
9166;SDS011;4618;48.818;9.088;2023-02-14T12:29:42;16.45;;;14.85;;
9166;SDS011;4618;48.818;9.088;2023-02-14T12:34:50;15.32;;;13.93;;
9166;SDS011;4618;48.818;9.088;2023-02-14T12:40:26;15.57;;;13.90;;
9166;SDS011;4618;48.818;9.088;2023-02-14T13:10:42;16.83;;;15.13;;
9166;SDS011;4618;48.818;9.088;2023-02-14T13:13:39;17.08;;;15.48;;
9166;SDS011;4618;48.818;9.088;2023-02-14T13:16:13;15.88;;;14.35;;
9166;SDS011;4618;48.818;9.088;2023-02-14T13:21:22;18.13;;;16.35;;
9166;SDS011;4618;48.818;9.088;2023-02-14T13:23:51;17.08;;;15.40;;
9166;SDS011;4618;48.818;9.088;2023-02-14T13:26:21;17.73;;;15.90;;
9166;SDS011;4618;48.818;9.088;2023-02-14T13:28:57;18.05;;;16.30;;
9166;SDS011;4618;48.818;9.088;2023-02-14T13:31:27;19.00;;;16.70;;
9166;SDS011;4618;48.818;9.088;2023-02-14T13:36:52;19.93;;;17.70;;
9166;SDS011;4618;48.818;9.088;2023-02-14T13:39:27;18.17;;;16.27;;
9166;SDS011;4618;48.818;9.088;2023-02-14T13:41:58;18.83;;;17.00;;
9166;SDS011;4618;48.818;9.088;2023-02-14T13:44:43;18.03;;;16.13;;
9166;SDS011;4618;48.818;9.088;2023-02-14T13:47:19;18.13;;;16.07;;
9166;SDS011;4618;48.818;9.088;2023-02-14T13:49:47;18.57;;;16.77;;
9166;SDS011;4618;48.818;9.088;2023-02-14T13:55:22;19.47;;;17.47;;
9166;SDS011;4618;48.818;9.088;2023-02-14T14:00:40;18.83;;;16.93;;
9166;SDS011;4618;48.818;9.088;2023-02-14T14:03:11;18.83;;;16.97;;
9166;SDS011;4618;48.818;9.088;2023-02-14T14:06:02;19.17;;;17.17;;
9166;SDS011;4618;48.818;9.088;2023-02-14T14:10:59;18.60;;;16.70;;
9166;SDS011;4618;48.818;9.088;2023-02-14T14:16:38;18.87;;;16.97;;
9166;SDS011;4618;48.818;9.088;2023-02-14T14:21:29;19.37;;;17.37;;
9166;SDS011;4618;48.818;9.088;2023-02-14T14:29:18;19.77;;;17.23;;
9166;SDS011;4618;48.818;9.088;2023-02-14T14:31:48;20.13;;;17.93;;
9166;SDS011;4618;48.818;9.088;2023-02-14T14:34:19;19.27;;;17.20;;
9166;SDS011;4618;48.818;9.088;2023-02-14T14:36:48;18.63;;;16.80;;
9166;SDS011;4618;48.818;9.088;2023-02-14T14:39:26;18.90;;;17.00;;
9166;SDS011;4618;48.818;9.088;2023-02-14T14:41:53;17.43;;;15.73;;
9166;SDS011;4618;48.818;9.088;2023-02-14T14:44:19;19.33;;;17.13;;
9166;SDS011;4618;48.818;9.088;2023-02-14T14:46:44;18.13;;;16.23;;
9166;SDS011;4618;48.818;9.088;2023-02-14T14:49:11;18.33;;;15.53;;
9166;SDS011;4618;48.818;9.088;2023-02-14T14:51:37;19.80;;;17.10;;
9166;SDS011;4618;48.818;9.088;2023-02-14T14:54:04;19.50;;;17.50;;
9166;SDS011;4618;48.818;9.088;2023-02-14T14:56:33;18.83;;;16.80;;
9166;SDS011;4618;48.818;9.088;2023-02-14T15:01:55;17.00;;;15.20;;
9166;SDS011;4618;48.818;9.088;2023-02-14T15:04:30;17.87;;;15.53;;
9166;SDS011;4618;48.818;9.088;2023-02-14T15:07:15;17.70;;;15.90;;
9166;SDS011;4618;48.818;9.088;2023-02-14T15:09:43;20.27;;;16.27;;
9166;SDS011;4618;48.818;9.088;2023-02-14T15:12:08;19.60;;;17.37;;
9166;SDS011;4618;48.818;9.088;2023-02-14T15:14:54;17.13;;;15.43;;
9166;SDS011;4618;48.818;9.088;2023-02-14T15:17:22;17.40;;;15.43;;
9166;SDS011;4618;48.818;9.088;2023-02-14T15:19:51;18.33;;;16.43;;
9166;SDS011;4618;48.818;9.088;2023-02-14T15:22:23;20.07;;;16.20;;
9166;SDS011;4618;48.818;9.088;2023-02-14T15:24:49;18.73;;;16.57;;
9166;SDS011;4618;48.818;9.088;2023-02-14T15:27:16;18.53;;;16.70;;
9166;SDS011;4618;48.818;9.088;2023-02-14T15:32:29;17.77;;;15.23;;
9166;SDS011;4618;48.818;9.088;2023-02-14T15:34:57;18.30;;;16.27;;
9166;SDS011;4618;48.818;9.088;2023-02-14T15:37:25;18.70;;;16.90;;
9166;SDS011;4618;48.818;9.088;2023-02-14T15:39:51;20.00;;;16.57;;
9166;SDS011;4618;48.818;9.088;2023-02-14T15:42:31;18.80;;;16.57;;
9166;SDS011;4618;48.818;9.088;2023-02-14T15:47:42;20.07;;;17.70;;
9166;SDS011;4618;48.818;9.088;2023-02-14T15:50:13;18.43;;;16.47;;
9166;SDS011;4618;48.818;9.088;2023-02-14T15:52:40;19.00;;;16.67;;
9166;SDS011;4618;48.818;9.088;2023-02-14T15:55:07;23.07;;;16.67;;
9166;SDS011;4618;48.818;9.088;2023-02-14T15:57:34;20.83;;;16.17;;
9166;SDS011;4618;48.818;9.088;2023-02-14T16:00:02;20.80;;;16.73;;
9166;SDS011;4618;48.818;9.088;2023-02-14T16:02:32;18.97;;;16.97;;
9166;SDS011;4618;48.818;9.088;2023-02-14T16:05:05;18.53;;;16.30;;
9166;SDS011;4618;48.818;9.088;2023-02-14T16:07:39;20.00;;;16.97;;
9166;SDS011;4618;48.818;9.088;2023-02-14T16:12:53;20.33;;;16.23;;
9166;SDS011;4618;48.818;9.088;2023-02-14T16:15:19;23.20;;;16.50;;
9166;SDS011;4618;48.818;9.088;2023-02-14T16:17:47;19.13;;;16.37;;
9166;SDS011;4618;48.818;9.088;2023-02-14T16:22:47;20.17;;;16.27;;
9166;SDS011;4618;48.818;9.088;2023-02-14T16:25:13;20.93;;;17.73;;
9166;SDS011;4618;48.818;9.088;2023-02-14T16:27:39;22.70;;;18.33;;
9166;SDS011;4618;48.818;9.088;2023-02-14T16:30:05;25.07;;;17.63;;
9166;SDS011;4618;48.818;9.088;2023-02-14T16:32:31;24.50;;;18.80;;
9166;SDS011;4618;48.818;9.088;2023-02-14T16:34:57;24.30;;;17.50;;
9166;SDS011;4618;48.818;9.088;2023-02-14T16:37:26;27.43;;;19.33;;
9166;SDS011;4618;48.818;9.088;2023-02-14T16:39:55;27.13;;;19.60;;
9166;SDS011;4618;48.818;9.088;2023-02-14T16:42:22;32.33;;;19.17;;
9166;SDS011;4618;48.818;9.088;2023-02-14T16:44:48;24.83;;;19.13;;
9166;SDS011;4618;48.818;9.088;2023-02-14T16:47:15;28.13;;;19.77;;
9166;SDS011;4618;48.818;9.088;2023-02-14T16:49:42;26.40;;;19.23;;
9166;SDS011;4618;48.818;9.088;2023-02-14T16:52:18;26.20;;;20.27;;
9166;SDS011;4618;48.818;9.088;2023-02-14T16:54:47;29.47;;;19.97;;
9166;SDS011;4618;48.818;9.088;2023-02-14T16:57:20;24.67;;;19.70;;
9166;SDS011;4618;48.818;9.088;2023-02-14T16:59:54;28.07;;;19.70;;
9166;SDS011;4618;48.818;9.088;2023-02-14T17:02:20;28.43;;;20.50;;
9166;SDS011;4618;48.818;9.088;2023-02-14T17:04:46;24.87;;;20.13;;
9166;SDS011;4618;48.818;9.088;2023-02-14T17:07:12;26.93;;;20.53;;
9166;SDS011;4618;48.818;9.088;2023-02-14T17:09:40;31.00;;;22.20;;
9166;SDS011;4618;48.818;9.088;2023-02-14T17:12:09;32.07;;;20.80;;
9166;SDS011;4618;48.818;9.088;2023-02-14T17:14:41;29.57;;;21.13;;
9166;SDS011;4618;48.818;9.088;2023-02-14T17:17:10;29.03;;;21.23;;
9166;SDS011;4618;48.818;9.088;2023-02-14T17:19:37;28.10;;;21.20;;
9166;SDS011;4618;48.818;9.088;2023-02-14T17:22:02;29.87;;;21.70;;
9166;SDS011;4618;48.818;9.088;2023-02-14T17:24:29;27.10;;;21.43;;
9166;SDS011;4618;48.818;9.088;2023-02-14T17:26:55;31.03;;;22.40;;
9166;SDS011;4618;48.818;9.088;2023-02-14T17:29:20;30.03;;;21.93;;
9166;SDS011;4618;48.818;9.088;2023-02-14T17:31:46;30.73;;;23.00;;
9166;SDS011;4618;48.818;9.088;2023-02-14T17:34:12;33.70;;;23.30;;